sensor_id;sensor_type;location;lat;lon;timestamp;P1;durP1;ratioP1;P2;durP2;ratioP2
20739;SDS011;10530;49.968;19.844;2023-08-01T00:01:53;12.85;;;5.85;;
20739;SDS011;10530;49.968;19.844;2023-08-01T00:06:56;10.65;;;5.53;;
20739;SDS011;10530;49.968;19.844;2023-08-01T00:11:59;11.82;;;6.20;;
20739;SDS011;10530;49.968;19.844;2023-08-01T00:17:01;14.60;;;8.15;;
20739;SDS011;10530;49.968;19.844;2023-08-01T00:22:04;12.70;;;7.07;;
20739;SDS011;10530;49.968;19.844;2023-08-01T00:27:08;15.20;;;8.35;;
20739;SDS011;10530;49.968;19.844;2023-08-01T00:32:12;14.93;;;7.03;;
20739;SDS011;10530;49.968;19.844;2023-08-01T00:37:15;18.25;;;9.88;;
20739;SDS011;10530;49.968;19.844;2023-08-01T00:42:18;16.75;;;9.50;;
20739;SDS011;10530;49.968;19.844;2023-08-01T00:47:22;17.93;;;9.80;;
20739;SDS011;10530;49.968;19.844;2023-08-01T00:52:24;16.98;;;8.35;;
20739;SDS011;10530;49.968;19.844;2023-08-01T00:57:27;13.55;;;7.93;;
20739;SDS011;10530;49.968;19.844;2023-08-01T01:02:30;13.10;;;8.00;;
20739;SDS011;10530;49.968;19.844;2023-08-01T01:07:33;12.85;;;7.68;;
20739;SDS011;10530;49.968;19.844;2023-08-01T01:12:37;16.83;;;8.57;;
20739;SDS011;10530;49.968;19.844;2023-08-01T01:17:40;12.45;;;7.75;;
20739;SDS011;10530;49.968;19.844;2023-08-01T01:22:42;12.55;;;7.25;;
20739;SDS011;10530;49.968;19.844;2023-08-01T01:27:46;11.57;;;6.68;;
20739;SDS011;10530;49.968;19.844;2023-08-01T01:32:53;12.32;;;6.47;;
20739;SDS011;10530;49.968;19.844;2023-08-01T01:37:57;13.37;;;7.00;;
20739;SDS011;10530;49.968;19.844;2023-08-01T01:43:01;11.40;;;6.63;;
20739;SDS011;10530;49.968;19.844;2023-08-01T01:48:04;14.35;;;8.05;;
20739;SDS011;10530;49.968;19.844;2023-08-01T01:53:06;16.02;;;7.03;;
20739;SDS011;10530;49.968;19.844;2023-08-01T01:58:09;12.10;;;6.93;;
20739;SDS011;10530;49.968;19.844;2023-08-01T02:03:12;12.10;;;6.50;;
20739;SDS011;10530;49.968;19.844;2023-08-01T02:08:15;12.35;;;6.75;;
20739;SDS011;10530;49.968;19.844;2023-08-01T02:13:17;13.57;;;6.30;;
20739;SDS011;10530;49.968;19.844;2023-08-01T02:18:20;10.95;;;5.68;;
20739;SDS011;10530;49.968;19.844;2023-08-01T02:23:23;11.77;;;6.07;;
20739;SDS011;10530;49.968;19.844;2023-08-01T02:28:25;9.63;;;5.03;;
20739;SDS011;10530;49.968;19.844;2023-08-01T02:33:28;9.73;;;5.03;;
20739;SDS011;10530;49.968;19.844;2023-08-01T02:38:31;11.20;;;5.57;;
20739;SDS011;10530;49.968;19.844;2023-08-01T02:43:34;10.55;;;4.95;;
20739;SDS011;10530;49.968;19.844;2023-08-01T02:48:38;11.35;;;4.88;;
20739;SDS011;10530;49.968;19.844;2023-08-01T02:53:40;11.33;;;5.33;;
20739;SDS011;10530;49.968;19.844;2023-08-01T02:58:43;11.52;;;4.80;;
20739;SDS011;10530;49.968;19.844;2023-08-01T03:03:46;11.48;;;5.00;;
20739;SDS011;10530;49.968;19.844;2023-08-01T03:08:49;12.13;;;5.05;;
20739;SDS011;10530;49.968;19.844;2023-08-01T03:13:53;8.73;;;4.53;;
20739;SDS011;10530;49.968;19.844;2023-08-01T03:18:55;13.30;;;6.30;;
20739;SDS011;10530;49.968;19.844;2023-08-01T03:23:58;10.90;;;5.25;;
20739;SDS011;10530;49.968;19.844;2023-08-01T03:29:02;13.75;;;6.07;;
20739;SDS011;10530;49.968;19.844;2023-08-01T03:34:06;13.77;;;6.28;;
20739;SDS011;10530;49.968;19.844;2023-08-01T03:39:11;13.10;;;6.35;;
20739;SDS011;10530;49.968;19.844;2023-08-01T03:44:13;11.83;;;6.00;;
20739;SDS011;10530;49.968;19.844;2023-08-01T03:49:18;15.40;;;6.05;;
20739;SDS011;10530;49.968;19.844;2023-08-01T03:54:20;13.80;;;7.32;;
20739;SDS011;10530;49.968;19.844;2023-08-01T03:59:23;16.17;;;7.20;;
20739;SDS011;10530;49.968;19.844;2023-08-01T04:04:26;16.67;;;8.10;;
20739;SDS011;10530;49.968;19.844;2023-08-01T04:09:29;15.13;;;8.27;;
20739;SDS011;10530;49.968;19.844;2023-08-01T04:14:32;16.95;;;10.05;;
20739;SDS011;10530;49.968;19.844;2023-08-01T04:19:35;15.48;;;9.00;;
20739;SDS011;10530;49.968;19.844;2023-08-01T04:24:38;14.65;;;8.93;;
20739;SDS011;10530;49.968;19.844;2023-08-01T04:29:40;11.70;;;7.32;;
20739;SDS011;10530;49.968;19.844;2023-08-01T04:34:43;8.43;;;4.80;;
20739;SDS011;10530;49.968;19.844;2023-08-01T04:39:46;12.07;;;5.20;;
20739;SDS011;10530;49.968;19.844;2023-08-01T04:44:49;8.55;;;4.65;;
20739;SDS011;10530;49.968;19.844;2023-08-01T04:49:52;8.93;;;4.30;;
20739;SDS011;10530;49.968;19.844;2023-08-01T04:54:54;8.40;;;4.28;;
20739;SDS011;10530;49.968;19.844;2023-08-01T04:59:57;9.40;;;3.53;;
20739;SDS011;10530;49.968;19.844;2023-08-01T05:05:01;7.57;;;3.25;;
20739;SDS011;10530;49.968;19.844;2023-08-01T05:10:04;7.50;;;3.38;;
20739;SDS011;10530;49.968;19.844;2023-08-01T05:15:07;7.32;;;3.10;;
20739;SDS011;10530;49.968;19.844;2023-08-01T05:20:10;6.05;;;2.60;;
20739;SDS011;10530;49.968;19.844;2023-08-01T05:25:13;6.73;;;2.53;;
20739;SDS011;10530;49.968;19.844;2023-08-01T05:30:16;5.57;;;2.00;;
20739;SDS011;10530;49.968;19.844;2023-08-01T05:35:19;5.60;;;1.83;;
20739;SDS011;10530;49.968;19.844;2023-08-01T05:40:23;4.78;;;1.90;;
20739;SDS011;10530;49.968;19.844;2023-08-01T05:45:26;4.40;;;1.73;;
20739;SDS011;10530;49.968;19.844;2023-08-01T05:50:28;5.67;;;2.37;;
20739;SDS011;10530;49.968;19.844;2023-08-01T05:55:31;5.00;;;1.85;;
20739;SDS011;10530;49.968;19.844;2023-08-01T06:00:35;4.95;;;1.80;;
20739;SDS011;10530;49.968;19.844;2023-08-01T06:05:38;6.53;;;1.90;;
20739;SDS011;10530;49.968;19.844;2023-08-01T06:10:41;5.05;;;1.75;;
20739;SDS011;10530;49.968;19.844;2023-08-01T06:15:44;5.63;;;2.07;;
20739;SDS011;10530;49.968;19.844;2023-08-01T06:20:47;5.32;;;2.10;;
20739;SDS011;10530;49.968;19.844;2023-08-01T06:25:50;5.80;;;2.00;;
20739;SDS011;10530;49.968;19.844;2023-08-01T06:30:52;6.00;;;2.20;;
20739;SDS011;10530;49.968;19.844;2023-08-01T06:35:55;5.25;;;1.90;;
20739;SDS011;10530;49.968;19.844;2023-08-01T06:40:58;4.67;;;2.00;;
20739;SDS011;10530;49.968;19.844;2023-08-01T06:46:00;5.78;;;2.78;;
20739;SDS011;10530;49.968;19.844;2023-08-01T06:51:03;6.03;;;2.53;;
20739;SDS011;10530;49.968;19.844;2023-08-01T06:56:06;4.32;;;1.83;;
20739;SDS011;10530;49.968;19.844;2023-08-01T07:01:08;6.15;;;2.35;;
20739;SDS011;10530;49.968;19.844;2023-08-01T07:06:11;4.77;;;2.20;;
20739;SDS011;10530;49.968;19.844;2023-08-01T07:11:14;5.85;;;2.17;;
20739;SDS011;10530;49.968;19.844;2023-08-01T07:16:17;4.95;;;2.30;;
20739;SDS011;10530;49.968;19.844;2023-08-01T07:21:20;5.20;;;2.20;;
20739;SDS011;10530;49.968;19.844;2023-08-01T07:26:22;5.68;;;2.17;;
20739;SDS011;10530;49.968;19.844;2023-08-01T07:31:27;4.67;;;2.47;;
20739;SDS011;10530;49.968;19.844;2023-08-01T07:36:30;6.47;;;2.70;;
20739;SDS011;10530;49.968;19.844;2023-08-01T07:41:33;6.82;;;2.45;;
20739;SDS011;10530;49.968;19.844;2023-08-01T07:46:36;4.45;;;2.33;;
20739;SDS011;10530;49.968;19.844;2023-08-01T07:51:39;5.28;;;2.50;;
20739;SDS011;10530;49.968;19.844;2023-08-01T07:56:42;5.60;;;2.63;;
20739;SDS011;10530;49.968;19.844;2023-08-01T08:01:45;4.80;;;2.40;;
20739;SDS011;10530;49.968;19.844;2023-08-01T08:06:48;6.45;;;2.50;;
20739;SDS011;10530;49.968;19.844;2023-08-01T08:11:52;5.90;;;2.60;;
20739;SDS011;10530;49.968;19.844;2023-08-01T08:16:54;5.35;;;2.42;;
20739;SDS011;10530;49.968;19.844;2023-08-01T08:21:57;5.30;;;2.50;;
20739;SDS011;10530;49.968;19.844;2023-08-01T08:27:00;4.63;;;2.20;;
20739;SDS011;10530;49.968;19.844;2023-08-01T08:32:03;4.80;;;2.35;;
20739;SDS011;10530;49.968;19.844;2023-08-01T08:37:06;6.35;;;2.38;;
20739;SDS011;10530;49.968;19.844;2023-08-01T08:42:09;4.93;;;2.20;;
20739;SDS011;10530;49.968;19.844;2023-08-01T08:47:13;6.80;;;2.90;;
20739;SDS011;10530;49.968;19.844;2023-08-01T08:52:21;5.18;;;2.30;;
20739;SDS011;10530;49.968;19.844;2023-08-01T08:57:24;5.68;;;2.40;;
20739;SDS011;10530;49.968;19.844;2023-08-01T09:02:27;5.78;;;2.58;;
20739;SDS011;10530;49.968;19.844;2023-08-01T09:07:30;5.28;;;2.63;;
20739;SDS011;10530;49.968;19.844;2023-08-01T09:12:37;6.23;;;2.50;;
20739;SDS011;10530;49.968;19.844;2023-08-01T09:17:50;7.18;;;3.05;;
20739;SDS011;10530;49.968;19.844;2023-08-01T09:22:53;7.22;;;3.10;;
20739;SDS011;10530;49.968;19.844;2023-08-01T09:27:56;5.88;;;3.00;;
20739;SDS011;10530;49.968;19.844;2023-08-01T09:32:59;6.88;;;3.20;;
20739;SDS011;10530;49.968;19.844;2023-08-01T09:38:03;5.63;;;2.93;;
20739;SDS011;10530;49.968;19.844;2023-08-01T09:43:05;6.28;;;2.80;;
20739;SDS011;10530;49.968;19.844;2023-08-01T09:48:08;7.35;;;2.80;;
20739;SDS011;10530;49.968;19.844;2023-08-01T09:53:11;6.43;;;3.10;;
20739;SDS011;10530;49.968;19.844;2023-08-01T09:58:14;5.10;;;2.67;;
20739;SDS011;10530;49.968;19.844;2023-08-01T10:03:23;6.23;;;3.13;;
20739;SDS011;10530;49.968;19.844;2023-08-01T10:08:28;7.45;;;3.03;;
20739;SDS011;10530;49.968;19.844;2023-08-01T10:13:31;6.55;;;3.28;;
20739;SDS011;10530;49.968;19.844;2023-08-01T10:18:36;8.20;;;3.45;;
20739;SDS011;10530;49.968;19.844;2023-08-01T10:23:39;7.05;;;3.67;;
20739;SDS011;10530;49.968;19.844;2023-08-01T10:28:51;8.03;;;3.90;;
20739;SDS011;10530;49.968;19.844;2023-08-01T10:34:03;12.23;;;3.97;;
20739;SDS011;10530;49.968;19.844;2023-08-01T10:39:20;6.97;;;3.50;;
20739;SDS011;10530;49.968;19.844;2023-08-01T10:44:25;9.30;;;3.83;;
20739;SDS011;10530;49.968;19.844;2023-08-01T10:49:39;9.05;;;3.67;;
20739;SDS011;10530;49.968;19.844;2023-08-01T10:54:44;7.10;;;3.10;;
20739;SDS011;10530;49.968;19.844;2023-08-01T10:59:48;7.45;;;3.97;;
20739;SDS011;10530;49.968;19.844;2023-08-01T11:04:55;11.35;;;4.03;;
20739;SDS011;10530;49.968;19.844;2023-08-01T11:15:12;7.18;;;3.55;;
20739;SDS011;10530;49.968;19.844;2023-08-01T11:20:17;8.17;;;3.80;;
20739;SDS011;10530;49.968;19.844;2023-08-01T11:25:32;9.45;;;3.65;;
20739;SDS011;10530;49.968;19.844;2023-08-01T11:30:38;8.77;;;3.90;;
20739;SDS011;10530;49.968;19.844;2023-08-01T11:35:42;7.43;;;3.45;;
20739;SDS011;10530;49.968;19.844;2023-08-01T11:40:46;6.78;;;3.17;;
20739;SDS011;10530;49.968;19.844;2023-08-01T11:45:54;6.30;;;3.13;;
20739;SDS011;10530;49.968;19.844;2023-08-01T11:50:59;8.32;;;3.10;;
20739;SDS011;10530;49.968;19.844;2023-08-01T11:56:03;7.82;;;2.80;;
20739;SDS011;10530;49.968;19.844;2023-08-01T12:01:06;5.35;;;2.40;;
20739;SDS011;10530;49.968;19.844;2023-08-01T12:06:14;5.28;;;2.50;;
20739;SDS011;10530;49.968;19.844;2023-08-01T12:16:22;5.60;;;2.38;;
20739;SDS011;10530;49.968;19.844;2023-08-01T12:21:25;5.45;;;2.20;;
20739;SDS011;10530;49.968;19.844;2023-08-01T12:26:28;5.68;;;2.05;;
20739;SDS011;10530;49.968;19.844;2023-08-01T12:31:31;5.20;;;2.17;;
20739;SDS011;10530;49.968;19.844;2023-08-01T12:36:34;5.27;;;2.23;;
20739;SDS011;10530;49.968;19.844;2023-08-01T12:41:37;5.45;;;2.30;;
20739;SDS011;10530;49.968;19.844;2023-08-01T12:46:41;5.53;;;2.40;;
20739;SDS011;10530;49.968;19.844;2023-08-01T12:51:44;7.35;;;2.47;;
20739;SDS011;10530;49.968;19.844;2023-08-01T12:56:49;4.80;;;2.10;;
20739;SDS011;10530;49.968;19.844;2023-08-01T13:01:52;6.03;;;2.40;;
20739;SDS011;10530;49.968;19.844;2023-08-01T13:06:55;5.82;;;1.95;;
20739;SDS011;10530;49.968;19.844;2023-08-01T13:11:58;5.75;;;2.10;;
20739;SDS011;10530;49.968;19.844;2023-08-01T13:17:02;5.53;;;2.10;;
20739;SDS011;10530;49.968;19.844;2023-08-01T13:22:05;4.53;;;2.00;;
20739;SDS011;10530;49.968;19.844;2023-08-01T13:27:07;5.23;;;2.10;;
20739;SDS011;10530;49.968;19.844;2023-08-01T13:32:11;4.90;;;1.95;;
20739;SDS011;10530;49.968;19.844;2023-08-01T13:37:14;5.55;;;2.17;;
20739;SDS011;10530;49.968;19.844;2023-08-01T13:42:17;5.40;;;1.90;;
20739;SDS011;10530;49.968;19.844;2023-08-01T13:47:19;5.28;;;1.52;;
20739;SDS011;10530;49.968;19.844;2023-08-01T13:52:23;4.00;;;1.77;;
20739;SDS011;10530;49.968;19.844;2023-08-01T13:57:25;4.93;;;1.80;;
20739;SDS011;10530;49.968;19.844;2023-08-01T14:02:28;5.38;;;1.80;;
20739;SDS011;10530;49.968;19.844;2023-08-01T14:07:34;4.10;;;1.60;;
20739;SDS011;10530;49.968;19.844;2023-08-01T14:12:44;4.45;;;1.95;;
20739;SDS011;10530;49.968;19.844;2023-08-01T14:17:47;4.50;;;1.43;;
20739;SDS011;10530;49.968;19.844;2023-08-01T14:22:49;4.97;;;1.77;;
20739;SDS011;10530;49.968;19.844;2023-08-01T14:27:52;4.50;;;1.70;;
20739;SDS011;10530;49.968;19.844;2023-08-01T14:32:59;5.03;;;1.80;;
20739;SDS011;10530;49.968;19.844;2023-08-01T14:38:03;5.13;;;1.70;;
20739;SDS011;10530;49.968;19.844;2023-08-01T14:43:06;4.40;;;1.73;;
20739;SDS011;10530;49.968;19.844;2023-08-01T14:48:10;4.03;;;1.63;;
20739;SDS011;10530;49.968;19.844;2023-08-01T14:53:13;4.20;;;1.60;;
20739;SDS011;10530;49.968;19.844;2023-08-01T14:58:15;6.07;;;1.65;;
20739;SDS011;10530;49.968;19.844;2023-08-01T15:03:18;4.57;;;1.90;;
20739;SDS011;10530;49.968;19.844;2023-08-01T15:08:21;4.33;;;1.43;;
20739;SDS011;10530;49.968;19.844;2023-08-01T15:13:24;4.72;;;1.70;;
20739;SDS011;10530;49.968;19.844;2023-08-01T15:18:27;3.92;;;1.48;;
20739;SDS011;10530;49.968;19.844;2023-08-01T15:23:30;4.60;;;1.48;;
20739;SDS011;10530;49.968;19.844;2023-08-01T15:28:33;5.82;;;1.50;;
20739;SDS011;10530;49.968;19.844;2023-08-01T15:33:38;4.93;;;1.70;;
20739;SDS011;10530;49.968;19.844;2023-08-01T15:38:44;5.03;;;1.35;;
20739;SDS011;10530;49.968;19.844;2023-08-01T15:43:47;4.95;;;1.60;;
20739;SDS011;10530;49.968;19.844;2023-08-01T15:48:50;6.45;;;1.55;;
20739;SDS011;10530;49.968;19.844;2023-08-01T15:53:53;4.50;;;1.80;;
20739;SDS011;10530;49.968;19.844;2023-08-01T15:58:55;3.43;;;1.10;;
20739;SDS011;10530;49.968;19.844;2023-08-01T16:03:58;4.70;;;1.30;;
20739;SDS011;10530;49.968;19.844;2023-08-01T16:09:01;4.78;;;1.52;;
20739;SDS011;10530;49.968;19.844;2023-08-01T16:14:03;6.72;;;1.55;;
20739;SDS011;10530;49.968;19.844;2023-08-01T16:19:06;4.85;;;1.70;;
20739;SDS011;10530;49.968;19.844;2023-08-01T16:24:09;4.43;;;1.47;;
20739;SDS011;10530;49.968;19.844;2023-08-01T16:29:12;3.67;;;1.40;;
20739;SDS011;10530;49.968;19.844;2023-08-01T16:34:15;5.38;;;1.77;;
20739;SDS011;10530;49.968;19.844;2023-08-01T16:39:18;4.82;;;1.55;;
20739;SDS011;10530;49.968;19.844;2023-08-01T16:44:21;4.47;;;1.60;;
20739;SDS011;10530;49.968;19.844;2023-08-01T16:49:23;5.33;;;1.57;;
20739;SDS011;10530;49.968;19.844;2023-08-01T16:54:26;3.97;;;1.33;;
20739;SDS011;10530;49.968;19.844;2023-08-01T16:59:29;5.07;;;1.55;;
20739;SDS011;10530;49.968;19.844;2023-08-01T17:04:32;4.70;;;1.38;;
20739;SDS011;10530;49.968;19.844;2023-08-01T17:09:35;4.05;;;1.20;;
20739;SDS011;10530;49.968;19.844;2023-08-01T17:14:38;4.27;;;1.90;;
20739;SDS011;10530;49.968;19.844;2023-08-01T17:19:40;4.03;;;1.40;;
20739;SDS011;10530;49.968;19.844;2023-08-01T17:24:43;5.70;;;1.67;;
20739;SDS011;10530;49.968;19.844;2023-08-01T17:29:46;4.65;;;1.70;;
20739;SDS011;10530;49.968;19.844;2023-08-01T17:34:49;4.07;;;1.58;;
20739;SDS011;10530;49.968;19.844;2023-08-01T17:39:52;5.37;;;2.00;;
20739;SDS011;10530;49.968;19.844;2023-08-01T17:44:54;5.38;;;1.60;;
20739;SDS011;10530;49.968;19.844;2023-08-01T17:49:57;5.00;;;1.52;;
20739;SDS011;10530;49.968;19.844;2023-08-01T17:55:00;4.78;;;1.50;;
20739;SDS011;10530;49.968;19.844;2023-08-01T18:00:03;4.70;;;1.60;;
20739;SDS011;10530;49.968;19.844;2023-08-01T18:05:08;4.90;;;1.50;;
20739;SDS011;10530;49.968;19.844;2023-08-01T18:10:11;4.65;;;1.30;;
20739;SDS011;10530;49.968;19.844;2023-08-01T18:15:14;4.40;;;1.63;;
20739;SDS011;10530;49.968;19.844;2023-08-01T18:20:16;4.28;;;1.20;;
20739;SDS011;10530;49.968;19.844;2023-08-01T18:25:19;4.38;;;1.60;;
20739;SDS011;10530;49.968;19.844;2023-08-01T18:30:22;5.83;;;1.87;;
20739;SDS011;10530;49.968;19.844;2023-08-01T18:35:28;5.30;;;1.50;;
20739;SDS011;10530;49.968;19.844;2023-08-01T18:40:31;5.18;;;1.45;;
20739;SDS011;10530;49.968;19.844;2023-08-01T18:45:34;4.80;;;1.70;;
20739;SDS011;10530;49.968;19.844;2023-08-01T18:50:37;3.88;;;1.45;;
20739;SDS011;10530;49.968;19.844;2023-08-01T18:55:40;4.70;;;1.67;;
20739;SDS011;10530;49.968;19.844;2023-08-01T19:00:44;4.30;;;2.03;;
20739;SDS011;10530;49.968;19.844;2023-08-01T19:05:46;6.60;;;1.80;;
20739;SDS011;10530;49.968;19.844;2023-08-01T19:10:49;4.60;;;1.92;;
20739;SDS011;10530;49.968;19.844;2023-08-01T19:15:52;5.22;;;1.50;;
20739;SDS011;10530;49.968;19.844;2023-08-01T19:20:55;4.63;;;1.67;;
20739;SDS011;10530;49.968;19.844;2023-08-01T19:26:06;4.72;;;1.85;;
20739;SDS011;10530;49.968;19.844;2023-08-01T19:31:10;5.80;;;1.75;;
20739;SDS011;10530;49.968;19.844;2023-08-01T19:36:13;3.97;;;1.38;;
20739;SDS011;10530;49.968;19.844;2023-08-01T19:41:16;4.57;;;1.48;;
20739;SDS011;10530;49.968;19.844;2023-08-01T19:46:19;4.70;;;1.40;;
20739;SDS011;10530;49.968;19.844;2023-08-01T19:51:22;4.25;;;1.20;;
20739;SDS011;10530;49.968;19.844;2023-08-01T19:56:26;5.13;;;1.60;;
20739;SDS011;10530;49.968;19.844;2023-08-01T20:01:28;4.97;;;1.50;;
20739;SDS011;10530;49.968;19.844;2023-08-01T20:06:31;4.15;;;1.38;;
20739;SDS011;10530;49.968;19.844;2023-08-01T20:11:35;7.10;;;2.27;;
20739;SDS011;10530;49.968;19.844;2023-08-01T20:16:38;4.32;;;1.40;;
20739;SDS011;10530;49.968;19.844;2023-08-01T20:21:42;5.05;;;1.52;;
20739;SDS011;10530;49.968;19.844;2023-08-01T20:27:03;5.13;;;1.60;;
20739;SDS011;10530;49.968;19.844;2023-08-01T20:32:07;4.03;;;1.55;;
20739;SDS011;10530;49.968;19.844;2023-08-01T20:37:10;6.20;;;1.67;;
20739;SDS011;10530;49.968;19.844;2023-08-01T20:42:12;5.38;;;1.55;;
20739;SDS011;10530;49.968;19.844;2023-08-01T20:47:16;5.13;;;1.50;;
20739;SDS011;10530;49.968;19.844;2023-08-01T20:52:19;4.97;;;1.40;;
20739;SDS011;10530;49.968;19.844;2023-08-01T20:57:21;4.43;;;1.50;;
20739;SDS011;10530;49.968;19.844;2023-08-01T21:02:25;7.00;;;1.80;;
20739;SDS011;10530;49.968;19.844;2023-08-01T21:07:28;4.53;;;1.50;;
20739;SDS011;10530;49.968;19.844;2023-08-01T21:12:30;4.30;;;1.40;;
20739;SDS011;10530;49.968;19.844;2023-08-01T21:17:36;6.05;;;1.70;;
20739;SDS011;10530;49.968;19.844;2023-08-01T21:22:39;8.70;;;1.63;;
20739;SDS011;10530;49.968;19.844;2023-08-01T21:27:41;5.83;;;1.50;;
20739;SDS011;10530;49.968;19.844;2023-08-01T21:32:44;5.40;;;1.60;;
20739;SDS011;10530;49.968;19.844;2023-08-01T21:37:47;4.35;;;1.48;;
20739;SDS011;10530;49.968;19.844;2023-08-01T21:42:52;4.10;;;1.50;;
20739;SDS011;10530;49.968;19.844;2023-08-01T21:47:55;5.05;;;1.50;;
20739;SDS011;10530;49.968;19.844;2023-08-01T21:52:58;4.67;;;1.70;;
20739;SDS011;10530;49.968;19.844;2023-08-01T21:58:00;8.40;;;1.70;;
20739;SDS011;10530;49.968;19.844;2023-08-01T22:03:03;5.45;;;1.80;;
20739;SDS011;10530;49.968;19.844;2023-08-01T22:08:06;7.18;;;1.60;;
20739;SDS011;10530;49.968;19.844;2023-08-01T22:13:10;5.80;;;1.63;;
20739;SDS011;10530;49.968;19.844;2023-08-01T22:18:12;4.97;;;2.00;;
20739;SDS011;10530;49.968;19.844;2023-08-01T22:23:25;4.97;;;1.55;;
20739;SDS011;10530;49.968;19.844;2023-08-01T22:28:29;4.40;;;1.30;;
20739;SDS011;10530;49.968;19.844;2023-08-01T22:33:33;4.22;;;1.50;;
20739;SDS011;10530;49.968;19.844;2023-08-01T22:38:35;4.30;;;1.67;;
20739;SDS011;10530;49.968;19.844;2023-08-01T22:43:38;4.37;;;1.47;;
20739;SDS011;10530;49.968;19.844;2023-08-01T22:48:41;4.30;;;1.30;;
20739;SDS011;10530;49.968;19.844;2023-08-01T22:53:45;5.35;;;1.52;;
20739;SDS011;10530;49.968;19.844;2023-08-01T22:58:49;4.40;;;1.40;;
20739;SDS011;10530;49.968;19.844;2023-08-01T23:03:52;3.65;;;1.30;;
20739;SDS011;10530;49.968;19.844;2023-08-01T23:08:56;4.57;;;1.30;;
20739;SDS011;10530;49.968;19.844;2023-08-01T23:13:59;4.22;;;1.40;;
20739;SDS011;10530;49.968;19.844;2023-08-01T23:19:02;5.85;;;1.63;;
20739;SDS011;10530;49.968;19.844;2023-08-01T23:24:05;4.72;;;1.58;;
20739;SDS011;10530;49.968;19.844;2023-08-01T23:29:07;3.78;;;1.50;;
20739;SDS011;10530;49.968;19.844;2023-08-01T23:34:10;5.43;;;1.50;;
20739;SDS011;10530;49.968;19.844;2023-08-01T23:39:13;4.70;;;1.50;;
20739;SDS011;10530;49.968;19.844;2023-08-01T23:44:15;3.90;;;1.30;;
20739;SDS011;10530;49.968;19.844;2023-08-01T23:49:18;4.53;;;1.52;;
20739;SDS011;10530;49.968;19.844;2023-08-01T23:54:21;5.05;;;1.17;;
20739;SDS011;10530;49.968;19.844;2023-08-01T23:59:24;4.80;;;1.50;;
